createdAt,value
2022-11-04T00:02:28.958Z,47.31
2022-11-04T00:04:57.995Z,47.43
2022-11-04T00:07:54.465Z,48.90
2022-11-04T00:13:36.384Z,49.21
2022-11-04T00:16:26.400Z,49.00
2022-11-04T00:19:02.506Z,48.66
2022-11-04T00:21:52.861Z,48.32
2022-11-04T00:24:49.863Z,48.23
2022-11-04T00:27:44.820Z,47.89
2022-11-04T00:30:16.558Z,47.56
2022-11-04T00:33:14.568Z,47.56
2022-11-04T00:35:47.936Z,47.81
2022-11-04T00:38:22.046Z,47.79
2022-11-04T00:40:53.505Z,47.94
2022-11-04T00:43:27.515Z,47.76
2022-11-04T00:46:01.086Z,48.31
2022-11-04T00:48:33.393Z,48.06
2022-11-04T00:51:06.860Z,47.89
2022-11-04T00:53:33.587Z,48.05
2022-11-04T00:56:02.993Z,48.14
2022-11-04T00:58:31.607Z,48.55
2022-11-04T01:01:01.189Z,48.36
2022-11-04T01:03:27.986Z,48.77
2022-11-04T01:05:58.101Z,48.54
2022-11-04T01:08:31.166Z,48.54
2022-11-04T01:11:10.218Z,48.66
2022-11-04T01:13:40.180Z,48.45
2022-11-04T01:16:17.573Z,48.60
2022-11-04T01:18:48.012Z,48.44
2022-11-04T01:21:26.736Z,49.19
2022-11-04T01:23:53.369Z,49.10
2022-11-04T01:26:28.191Z,49.74
2022-11-04T01:28:56.916Z,49.25
2022-11-04T01:31:30.859Z,49.77
2022-11-04T01:34:06.864Z,49.37
2022-11-04T01:36:33.457Z,49.28
2022-11-04T01:39:05.822Z,49.43
2022-11-04T01:41:41.483Z,49.68
2022-11-04T01:44:49.526Z,49.71
2022-11-04T01:47:41.926Z,49.76
2022-11-04T01:50:26.698Z,49.38
2022-11-04T01:53:09.442Z,49.21
2022-11-04T01:55:52.947Z,49.21
2022-11-04T01:58:58.105Z,49.84
2022-11-04T02:01:29.715Z,49.51
2022-11-04T02:04:29.663Z,50.42
2022-11-04T02:07:08.523Z,50.66
2022-11-04T02:09:49.867Z,49.94
2022-11-04T02:12:35.407Z,49.63
2022-11-04T02:15:03.494Z,49.18
2022-11-04T02:18:00.237Z,50.07
2022-11-04T02:20:42.086Z,49.84
2022-11-04T02:23:28.044Z,49.73
2022-11-04T02:26:19.065Z,50.21
2022-11-04T02:29:15.363Z,49.80
2022-11-04T02:32:16.997Z,50.25
2022-11-04T02:34:57.577Z,50.33
2022-11-04T02:38:13.477Z,50.43
2022-11-04T02:40:56.936Z,50.10
2022-11-04T02:43:53.001Z,51.29
2022-11-04T02:46:31.861Z,50.93
2022-11-04T02:52:00.330Z,52.77
2022-11-04T02:54:46.597Z,51.96
2022-11-04T02:57:35.210Z,52.18
2022-11-04T03:00:21.792Z,52.12
2022-11-04T03:03:00.545Z,51.96
2022-11-04T03:05:34.958Z,51.97
2022-11-04T03:08:08.478Z,52.47
2022-11-04T03:10:55.071Z,53.05
2022-11-04T03:14:02.195Z,53.77
2022-11-04T03:16:54.787Z,53.69
2022-11-04T03:19:45.491Z,52.74
2022-11-04T03:22:33.058Z,52.00
2022-11-04T03:25:02.254Z,51.80
2022-11-04T03:30:30.977Z,51.63
2022-11-04T03:33:19.232Z,51.48
2022-11-04T03:35:57.684Z,51.66
2022-11-04T03:41:18.647Z,51.24
2022-11-04T03:43:56.754Z,51.51
2022-11-04T03:46:35.987Z,51.58
2022-11-04T03:51:50.256Z,52.62
2022-11-04T03:54:22.662Z,51.91
2022-11-04T03:56:49.250Z,52.19
2022-11-04T03:59:44.976Z,52.71
2022-11-04T04:02:23.540Z,52.62
2022-11-04T04:05:02.899Z,51.42
2022-11-04T04:07:43.764Z,51.49
2022-11-04T04:10:48.566Z,51.65
2022-11-04T04:13:29.764Z,51.48
2022-11-04T04:16:27.218Z,51.47
2022-11-04T04:19:24.558Z,51.91
2022-11-04T04:22:02.518Z,52.07
2022-11-04T04:24:57.850Z,52.83
2022-11-04T04:30:19.687Z,52.51
2022-11-04T04:32:50.916Z,51.88
2022-11-04T04:35:36.297Z,52.61
2022-11-04T04:38:26.114Z,52.76
2022-11-04T04:41:31.543Z,52.27
2022-11-04T04:44:26.701Z,52.69
2022-11-04T04:47:01.217Z,52.31
2022-11-04T04:49:47.174Z,52.71
2022-11-04T04:52:21.097Z,52.41
2022-11-04T04:54:56.034Z,52.53
2022-11-04T04:57:30.458Z,52.36
2022-11-04T05:00:00.826Z,53.53
2022-11-04T05:02:27.732Z,54.40
2022-11-04T05:05:03.148Z,54.04
2022-11-04T05:10:21.171Z,53.59
2022-11-04T05:13:12.106Z,53.20
2022-11-04T05:15:47.166Z,53.29
2022-11-04T05:18:18.976Z,55.03
2022-11-04T05:20:45.721Z,54.01
2022-11-04T05:23:18.900Z,53.28
2022-11-04T05:25:47.616Z,53.72
2022-11-04T05:28:18.195Z,53.71
2022-11-04T05:30:53.961Z,53.52
2022-11-04T05:33:26.023Z,54.34
2022-11-04T05:35:59.043Z,54.11
2022-11-04T05:38:29.872Z,53.87
2022-11-04T05:41:05.682Z,53.73
2022-11-04T05:43:38.400Z,53.74
2022-11-04T05:46:05.212Z,53.73
2022-11-04T05:48:40.052Z,53.82
2022-11-04T05:51:07.121Z,60.17
2022-11-04T05:53:33.742Z,57.00
2022-11-04T05:56:48.144Z,55.76
